Tropical Cyclones
[Index]
Main Index Home Page Stock Weather Photos Extreme Storms Discussion Storm News and Storm Chasing Reports Tropical Cyclones / Hurricanes / Typhoons Weather Data and Links Wild Fires / Bushfires Weather Observation Techniques Weather Picture Catalogue Tornado Pictures and Reports Stock Video Footage and DVDs for sale
Season 2002-2003 Tropical Cyclone MANOU Track Map
Season 2002-2003 Summaries (Operational Data): [AU] [SIO] [SPAC] [SH]
<<- Previous TC | 2002-2003 Season | Next TC ->>

click for intensity scale information  Lat/long Grid: Show Hide

 Date Labels: Show Hide

Operational Tropical Cyclone Data : JTWC Advisories

Name: MANOU
Number: 0328

02 May 2003 12:00 UTC to 10 May 2003 18:00 UTC

    date/time    lat    long     hPa   cat  kts
2003-05-02 12   11.0    65.0                 20          
2003-05-03 06   11.5    64.5    1002         25          
2003-05-03 12   13.5    63.5    1000         25          
2003-05-03 18   14.3    62.5    1000         25          
2003-05-04 00   15.3    61.4     998         30          
2003-05-04 06   15.3    61.1     992    1    35          
2003-05-04 12   15.6    60.6     995    1    35          
2003-05-04 18   16.1    59.8     995    1    35          
2003-05-05 00   15.8    59.2     995    1    35          
2003-05-05 06   15.8    59.0     993    1    35          
2003-05-05 12   16.1    58.4     993    1    35          
2003-05-05 18   16.4    57.7     993    1    35          
2003-05-06 00   16.6    57.0     993    1    35          
2003-05-06 06   17.2    55.9     993    1    35          
2003-05-06 12   17.3    55.0     993    1    35          
2003-05-06 18   17.8    54.3     993    1    35          
2003-05-07 00   18.3    53.4     992    1    35          
2003-05-07 06   18.5    52.2     991    1    40          
2003-05-07 12   18.6    51.3     990    1    40          
2003-05-07 18   18.7    51.0     987    1    45          
2003-05-08 00   18.7    50.0     984    2    50          
2003-05-08 06   19.0    49.9     962    3    70          
2003-05-08 12   19.1    49.4     952    3    80          
2003-05-08 18   19.2    49.1     952    3    80          
2003-05-09 00   19.4    49.2     955    3    80          
2003-05-09 06   19.6    49.1     970    3    65          
2003-05-09 12   19.6    49.0     980    2    60          
2003-05-09 18   20.3    49.2     985    2    50          
2003-05-10 00   20.2    49.2     990    1    40          
2003-05-10 06   20.9    48.8     998         30          
2003-05-10 12   21.9    48.8     998         30          
2003-05-10 18   22.9    48.9    1001         25          
Winds are 10-min average.

Tropical cyclone tracks developed by Michael Bath using operational warnings and advisories and Google Maps.


[Australian Severe Weather index] [Copyright Notice] [Email Contacts] [Search This Site] [Privacy Policy]
Document: tropical_cyclone_manou.htm Updated: 2 May 2017